createdAt,value
2022-08-16T00:00:28.312Z,61.21
2022-08-16T00:03:06.214Z,61.05
2022-08-16T00:05:47.852Z,62.14
2022-08-16T00:08:36.265Z,62.58
2022-08-16T00:11:03.579Z,62.39
2022-08-16T00:13:30.472Z,62.39
2022-08-16T00:15:57.259Z,62.66
2022-08-16T00:18:29.833Z,62.39
2022-08-16T00:20:57.665Z,62.37
2022-08-16T00:23:40.231Z,62.91
2022-08-16T00:26:35.576Z,63.01
2022-08-16T00:28:58.417Z,62.83
2022-08-16T00:31:26.243Z,63.14
2022-08-16T00:34:18.445Z,63.48
2022-08-16T00:36:47.407Z,63.20
2022-08-16T00:39:16.365Z,63.21
2022-08-16T00:41:49.012Z,62.98
2022-08-16T00:44:18.658Z,63.22
2022-08-16T00:47:09.053Z,63.17
2022-08-16T00:49:39.338Z,63.39
2022-08-16T00:52:29.195Z,62.91
2022-08-16T00:54:56.750Z,63.08
2022-08-16T00:57:24.011Z,63.06
2022-08-16T00:59:59.480Z,63.32
2022-08-16T01:02:30.882Z,63.24
2022-08-16T01:05:11.314Z,63.51
2022-08-16T01:07:49.765Z,63.51
2022-08-16T01:10:32.382Z,63.71
2022-08-16T01:13:05.875Z,63.69
2022-08-16T01:15:36.262Z,63.86
2022-08-16T01:18:05.007Z,64.00
2022-08-16T01:20:38.122Z,64.29
2022-08-16T01:23:17.936Z,64.39
2022-08-16T01:26:00.406Z,64.49
2022-08-16T01:28:38.899Z,64.51
2022-08-16T01:31:14.912Z,64.63
2022-08-16T01:33:44.717Z,64.92
2022-08-16T01:36:12.928Z,64.99
2022-08-16T01:38:46.956Z,65.21
2022-08-16T01:41:25.728Z,65.53
2022-08-16T01:43:56.962Z,65.79
2022-08-16T01:46:40.773Z,65.67
2022-08-16T01:49:15.103Z,65.97
2022-08-16T01:51:44.374Z,66.19
2022-08-16T01:54:13.186Z,66.35
2022-08-16T01:56:40.977Z,67.21
2022-08-16T01:59:15.930Z,67.53
2022-08-16T02:01:52.637Z,68.07
2022-08-16T02:04:48.235Z,68.13
2022-08-16T02:07:15.463Z,68.09
2022-08-16T02:09:44.298Z,68.00
2022-08-16T02:12:43.612Z,68.18
2022-08-16T02:15:15.747Z,68.53
2022-08-16T02:17:43.271Z,68.97
2022-08-16T02:20:26.226Z,68.69
2022-08-16T02:22:55.292Z,68.78
2022-08-16T02:25:23.178Z,69.21
2022-08-16T02:27:50.760Z,69.12
2022-08-16T02:30:36.647Z,69.31
2022-08-16T02:33:11.116Z,69.17
2022-08-16T02:35:54.559Z,68.98
2022-08-16T02:38:26.384Z,69.06
2022-08-16T02:40:54.554Z,69.08
2022-08-16T02:43:26.914Z,69.11
2022-08-16T02:45:57.610Z,69.33
2022-08-16T02:48:29.910Z,69.49
2022-08-16T02:51:06.798Z,69.49
2022-08-16T02:53:44.688Z,70.35
2022-08-16T02:56:15.532Z,69.96
2022-08-16T02:58:49.352Z,70.68
2022-08-16T03:01:24.571Z,70.67
2022-08-16T03:04:41.222Z,70.63
2022-08-16T03:06:48.631Z,71.01
2022-08-16T03:09:19.165Z,71.50
2022-08-16T03:11:47.448Z,71.47
2022-08-16T03:14:21.210Z,71.10
2022-08-16T03:16:58.906Z,71.43
2022-08-16T03:19:48.245Z,71.28
2022-08-16T03:22:18.910Z,71.13
2022-08-16T03:24:46.661Z,71.44
2022-08-16T03:27:13.774Z,71.51
2022-08-16T03:29:42.764Z,71.39
2022-08-16T03:32:21.637Z,71.52
2022-08-16T03:34:49.986Z,71.90
2022-08-16T03:37:17.546Z,72.34
2022-08-16T03:39:48.387Z,72.19
2022-08-16T03:42:23.633Z,72.26
2022-08-16T03:44:50.476Z,72.26
2022-08-16T03:47:19.770Z,72.19
2022-08-16T03:49:51.663Z,71.95
2022-08-16T03:52:23.926Z,71.90
2022-08-16T03:54:59.486Z,72.15
2022-08-16T03:57:32.129Z,71.82
2022-08-16T04:00:35.223Z,71.84
2022-08-16T04:03:08.542Z,71.53
2022-08-16T04:05:39.049Z,71.54
2022-08-16T04:08:22.927Z,71.15
2022-08-16T04:10:55.686Z,71.10
2022-08-16T04:13:59.003Z,71.05
2022-08-16T04:16:27.436Z,70.81
2022-08-16T04:19:01.273Z,70.42
2022-08-16T04:21:46.173Z,69.89
2022-08-16T04:24:14.887Z,69.53
2022-08-16T04:26:45.812Z,69.06
2022-08-16T04:29:21.158Z,68.40
2022-08-16T04:31:56.283Z,67.84
2022-08-16T04:34:31.431Z,67.26
2022-08-16T04:37:01.453Z,66.95
2022-08-16T04:39:44.888Z,66.34
2022-08-16T04:42:15.591Z,66.03
2022-08-16T04:44:54.669Z,65.57
2022-08-16T04:47:31.304Z,65.99
2022-08-16T04:50:00.061Z,65.84
2022-08-16T04:52:33.603Z,65.03
2022-08-16T04:55:01.659Z,64.56
2022-08-16T04:57:30.554Z,64.07
2022-08-16T04:59:59.532Z,63.60
2022-08-16T05:02:54.786Z,63.27
2022-08-16T05:05:24.154Z,62.90
2022-08-16T05:07:58.658Z,62.70
2022-08-16T05:10:29.510Z,62.50
2022-08-16T05:12:58.467Z,62.42
2022-08-16T05:15:25.796Z,62.35
2022-08-16T05:17:58.636Z,62.30
2022-08-16T05:20:39.306Z,62.08
2022-08-16T05:23:17.487Z,62.00
2022-08-16T05:25:48.361Z,61.73
2022-08-16T05:28:17.600Z,61.35
2022-08-16T05:30:50.427Z,61.51
2022-08-16T05:33:18.494Z,61.52
2022-08-16T05:35:55.639Z,61.74
2022-08-16T05:38:32.354Z,61.35
2022-08-16T05:41:06.914Z,61.21
2022-08-16T05:43:43.196Z,61.14
2022-08-16T05:46:30.628Z,60.94
2022-08-16T05:49:08.766Z,60.70
2022-08-16T05:51:39.962Z,60.34
2022-08-16T05:54:11.671Z,60.12
2022-08-16T05:56:42.974Z,59.75
2022-08-16T05:59:10.932Z,59.17
2022-08-16T06:01:39.580Z,59.15
2022-08-16T06:04:12.758Z,59.11
2022-08-16T06:06:55.760Z,59.16
2022-08-16T06:09:25.956Z,58.50
2022-08-16T06:12:11.756Z,58.10
2022-08-16T06:14:40.030Z,57.52
2022-08-16T06:17:07.747Z,57.37
2022-08-16T06:19:41.507Z,56.85
2022-08-16T06:22:11.446Z,57.01
2022-08-16T06:24:58.753Z,57.35
2022-08-16T06:27:27.445Z,56.77
2022-08-16T06:30:11.320Z,56.98
2022-08-16T06:32:42.809Z,58.95
2022-08-16T06:35:11.777Z,60.65
2022-08-16T06:37:47.004Z,60.96
2022-08-16T06:40:19.889Z,60.20
2022-08-16T06:42:48.445Z,59.34
2022-08-16T06:45:15.799Z,58.33
2022-08-16T06:47:52.922Z,57.06
2022-08-16T06:50:28.554Z,56.07
2022-08-16T06:53:09.033Z,54.57
2022-08-16T06:55:38.271Z,53.98
2022-08-16T06:58:08.402Z,53.91
2022-08-16T07:00:43.044Z,53.35
2022-08-16T07:03:27.681Z,53.29
2022-08-16T07:05:58.016Z,52.98
2022-08-16T07:08:27.261Z,53.02
2022-08-16T07:10:54.759Z,52.81
2022-08-16T07:13:58.001Z,52.60
2022-08-16T07:16:15.546Z,52.79
2022-08-16T07:18:58.929Z,52.58
2022-08-16T07:21:45.859Z,51.86
2022-08-16T07:24:30.610Z,51.20
2022-08-16T07:27:02.139Z,50.60
2022-08-16T07:29:32.043Z,49.79
2022-08-16T07:32:00.535Z,49.59
2022-08-16T07:34:35.802Z,48.67
2022-08-16T07:37:11.006Z,47.77
2022-08-16T07:39:44.681Z,47.74
2022-08-16T07:42:26.152Z,47.81
2022-08-16T07:44:58.018Z,47.26
2022-08-16T07:47:31.404Z,47.04
2022-08-16T07:50:07.749Z,45.77
2022-08-16T07:52:38.652Z,45.49
2022-08-16T07:55:08.105Z,45.14
2022-08-16T07:57:44.360Z,44.54
2022-08-16T08:00:26.331Z,44.33
2022-08-16T08:02:57.037Z,44.44
2022-08-16T08:05:28.186Z,44.84
2022-08-16T08:08:11.491Z,44.79
2022-08-16T08:10:51.223Z,44.24
2022-08-16T08:13:18.529Z,43.80
2022-08-16T08:15:53.134Z,43.26
2022-08-16T08:18:29.455Z,42.53
2022-08-16T08:20:59.038Z,42.40
2022-08-16T08:23:27.717Z,42.02
2022-08-16T08:25:55.856Z,41.33
2022-08-16T08:28:23.135Z,41.05
2022-08-16T08:31:01.433Z,40.09
2022-08-16T08:33:31.665Z,38.86
2022-08-16T08:36:01.228Z,37.75
2022-08-16T08:38:45.717Z,35.26
2022-08-16T08:41:15.478Z,34.96
2022-08-16T08:43:47.351Z,33.56
2022-08-16T08:46:21.742Z,32.66
2022-08-16T08:49:01.959Z,31.72
2022-08-16T08:51:31.915Z,30.77
2022-08-16T08:54:06.552Z,29.50
2022-08-16T08:56:37.270Z,29.51
2022-08-16T08:59:13.466Z,28.39
2022-08-16T09:01:56.295Z,27.82
2022-08-16T09:04:29.516Z,26.69
2022-08-16T09:06:58.508Z,26.98
2022-08-16T09:09:33.533Z,26.83
2022-08-16T09:12:06.336Z,26.53
2022-08-16T09:14:35.459Z,26.09
2022-08-16T09:17:11.564Z,25.27
2022-08-16T09:19:42.234Z,25.47
2022-08-16T09:22:19.784Z,25.30
2022-08-16T09:24:53.415Z,24.62
2022-08-16T09:27:23.569Z,24.95
2022-08-16T09:29:59.738Z,24.78
2022-08-16T09:32:30.491Z,23.91
2022-08-16T09:35:01.594Z,23.79
2022-08-16T09:37:36.391Z,22.87
2022-08-16T09:40:31.681Z,23.29
2022-08-16T09:42:59.127Z,23.55
2022-08-16T09:45:29.036Z,23.37
2022-08-16T09:47:58.398Z,22.56
2022-08-16T09:50:36.755Z,22.70
2022-08-16T09:53:15.580Z,22.20
2022-08-16T09:55:49.540Z,22.17
2022-08-16T09:58:41.912Z,22.35
2022-08-16T10:01:08.634Z,21.98
2022-08-16T10:04:01.105Z,22.42
2022-08-16T10:06:33.710Z,22.12
2022-08-16T10:09:08.174Z,21.71
2022-08-16T10:11:56.179Z,22.08
2022-08-16T10:14:40.698Z,21.63
2022-08-16T10:17:13.562Z,21.22
2022-08-16T10:19:43.467Z,20.26
2022-08-16T10:22:12.702Z,20.62
2022-08-16T10:24:40.720Z,19.73
2022-08-16T10:27:28.913Z,19.51
2022-08-16T10:30:06.537Z,19.62
2022-08-16T10:32:50.906Z,19.32
2022-08-16T10:35:18.775Z,20.12
2022-08-16T10:37:45.987Z,18.95
2022-08-16T10:40:29.388Z,19.05
2022-08-16T10:43:00.308Z,18.78
2022-08-16T10:45:37.014Z,18.59
2022-08-16T10:48:28.050Z,18.77
2022-08-16T10:50:56.332Z,17.52
2022-08-16T10:53:33.006Z,17.81
2022-08-16T10:56:02.756Z,17.75
2022-08-16T10:58:34.339Z,17.09
2022-08-16T11:03:57.370Z,16.53
2022-08-16T11:06:27.807Z,16.52
2022-08-16T11:14:34.066Z,15.95
2022-08-16T11:17:10.630Z,16.05
2022-08-16T11:22:41.877Z,16.46
2022-08-16T11:28:08.987Z,15.70
2022-08-16T11:30:38.669Z,17.22
2022-08-16T11:33:10.772Z,18.90
2022-08-16T11:36:22.474Z,18.52
2022-08-16T11:38:51.907Z,17.84
2022-08-16T11:41:13.796Z,18.26
2022-08-16T11:43:45.040Z,19.49
2022-08-16T11:46:45.031Z,18.62
2022-08-16T11:49:02.982Z,19.80
2022-08-16T11:51:30.194Z,20.50
2022-08-16T11:53:57.897Z,21.42
2022-08-16T11:56:39.773Z,23.37
2022-08-16T11:59:12.824Z,25.30
2022-08-16T12:01:54.784Z,23.57
2022-08-16T12:04:26.071Z,22.50
2022-08-16T12:06:53.784Z,21.46
2022-08-16T12:09:24.116Z,21.79
2022-08-16T12:11:53.186Z,20.90
2022-08-16T12:14:23.110Z,20.27
2022-08-16T12:16:55.546Z,21.86
2022-08-16T12:19:33.486Z,21.71
2022-08-16T12:22:01.603Z,20.63
2022-08-16T12:24:32.935Z,18.88
2022-08-16T12:27:00.954Z,21.25
2022-08-16T12:29:30.121Z,21.38
2022-08-16T12:32:01.670Z,21.94
2022-08-16T12:34:50.516Z,20.88
2022-08-16T12:37:20.750Z,20.84
2022-08-16T12:39:51.279Z,21.07
2022-08-16T12:42:20.368Z,22.26
2022-08-16T12:44:49.591Z,20.87
2022-08-16T12:47:37.337Z,19.02
2022-08-16T12:50:10.387Z,16.94
2022-08-16T12:52:40.047Z,16.71
2022-08-16T12:55:14.363Z,17.55
2022-08-16T12:57:41.914Z,17.59
2022-08-16T13:00:26.696Z,16.23
2022-08-16T13:03:02.439Z,15.88
2022-08-16T13:08:04.071Z,14.06
2022-08-16T13:10:39.253Z,14.91
2022-08-16T13:13:09.214Z,15.63
2022-08-16T13:15:51.751Z,15.69
2022-08-16T13:18:34.778Z,17.17
2022-08-16T13:21:08.488Z,20.45
2022-08-16T13:23:43.223Z,22.36
2022-08-16T13:26:12.789Z,21.79
2022-08-16T13:28:47.686Z,20.42
2022-08-16T13:31:16.055Z,19.47
2022-08-16T13:33:44.437Z,21.11
2022-08-16T13:36:21.161Z,21.54
2022-08-16T13:39:00.049Z,22.33
2022-08-16T13:41:30.261Z,21.26
2022-08-16T13:44:00.905Z,19.95
2022-08-16T13:46:32.428Z,20.52
2022-08-16T13:48:59.800Z,20.37
2022-08-16T13:51:30.720Z,20.79
2022-08-16T13:54:03.901Z,18.86
2022-08-16T13:56:37.640Z,18.17
2022-08-16T13:59:14.437Z,17.60
2022-08-16T14:01:55.511Z,17.81
2022-08-16T14:04:31.713Z,16.34
2022-08-16T14:07:00.882Z,17.77
2022-08-16T14:09:30.490Z,19.46
2022-08-16T14:12:00.845Z,19.12
2022-08-16T14:14:29.885Z,18.77
2022-08-16T14:16:59.535Z,20.36
2022-08-16T14:19:27.976Z,21.38
2022-08-16T14:22:14.041Z,21.75
2022-08-16T14:24:45.321Z,22.48
2022-08-16T14:27:19.600Z,23.24
2022-08-16T14:29:55.386Z,23.23
2022-08-16T14:32:33.885Z,23.78
2022-08-16T14:35:15.625Z,23.41
2022-08-16T14:37:43.399Z,23.65
2022-08-16T14:40:15.828Z,24.17
2022-08-16T14:42:46.438Z,23.42
2022-08-16T14:45:18.539Z,23.35
2022-08-16T14:47:46.683Z,23.17
2022-08-16T14:50:24.308Z,22.86
2022-08-16T14:53:00.943Z,22.65
2022-08-16T14:55:30.751Z,20.96
2022-08-16T14:57:58.070Z,20.57
2022-08-16T15:00:33.990Z,20.14
2022-08-16T15:03:06.571Z,20.87
2022-08-16T15:05:38.607Z,20.49
2022-08-16T15:08:06.065Z,19.82
2022-08-16T15:10:37.202Z,19.36
2022-08-16T15:13:09.667Z,19.04
2022-08-16T15:15:38.073Z,18.57
2022-08-16T15:18:06.296Z,19.67
2022-08-16T15:20:41.549Z,21.19
2022-08-16T15:23:09.293Z,23.00
2022-08-16T15:25:43.069Z,23.37
2022-08-16T15:28:30.792Z,24.06
2022-08-16T15:31:03.162Z,23.82
2022-08-16T15:33:33.021Z,24.05
2022-08-16T15:36:00.724Z,23.48
2022-08-16T15:38:54.863Z,23.20
2022-08-16T15:41:43.692Z,22.79
2022-08-16T15:44:14.721Z,21.86
2022-08-16T15:46:55.749Z,23.18
2022-08-16T15:49:38.077Z,22.64
2022-08-16T15:52:15.793Z,22.47
2022-08-16T15:54:53.033Z,21.95
2022-08-16T15:57:27.261Z,21.96
2022-08-16T16:00:04.671Z,21.44
2022-08-16T16:02:43.301Z,21.14
2022-08-16T16:05:10.487Z,25.19
2022-08-16T16:07:53.552Z,26.58
2022-08-16T16:10:29.732Z,28.61
2022-08-16T16:13:05.060Z,29.78
2022-08-16T16:16:06.739Z,29.74
2022-08-16T16:18:40.594Z,29.92
2022-08-16T16:21:12.259Z,29.87
2022-08-16T16:23:53.994Z,29.48
2022-08-16T16:26:22.256Z,28.86
2022-08-16T16:29:07.404Z,28.49
2022-08-16T16:31:41.202Z,29.95
2022-08-16T16:34:11.608Z,30.54
2022-08-16T16:36:39.953Z,30.71
2022-08-16T16:39:10.969Z,30.31
2022-08-16T16:41:39.641Z,30.87
2022-08-16T16:44:09.191Z,30.79
2022-08-16T16:46:42.691Z,30.89
2022-08-16T16:49:11.748Z,31.02
2022-08-16T16:51:44.689Z,31.00
2022-08-16T16:54:28.079Z,30.90
2022-08-16T16:56:57.328Z,31.43
2022-08-16T16:59:25.560Z,38.33
2022-08-16T17:02:38.673Z,47.69
2022-08-16T17:04:43.290Z,47.99
2022-08-16T17:07:11.790Z,51.64
2022-08-16T17:09:41.816Z,52.02
2022-08-16T17:12:12.170Z,55.75
2022-08-16T17:14:50.631Z,58.48
2022-08-16T17:17:17.505Z,53.17
2022-08-16T17:19:49.595Z,53.66
2022-08-16T17:22:20.061Z,55.99
2022-08-16T17:27:37.533Z,59.06
2022-08-16T17:33:01.381Z,65.23
2022-08-16T17:38:33.109Z,65.89
2022-08-16T17:39:27.208Z,65.45
2022-08-16T17:39:28.047Z,57.53
2022-08-16T17:39:28.517Z,60.16
2022-08-16T17:41:07.806Z,66.38
2022-08-16T17:43:43.968Z,65.30
2022-08-16T17:46:51.404Z,64.93
2022-08-16T17:48:59.812Z,64.83
2022-08-16T17:51:28.617Z,64.35
2022-08-16T17:53:55.785Z,61.79
2022-08-16T17:56:22.660Z,59.70
2022-08-16T17:58:49.751Z,58.95
2022-08-16T18:01:21.155Z,58.22
2022-08-16T18:04:08.915Z,58.77
2022-08-16T18:06:36.161Z,58.53
2022-08-16T18:09:04.174Z,58.63
2022-08-16T18:11:34.007Z,58.37
2022-08-16T18:14:01.344Z,59.01
2022-08-16T18:16:28.511Z,59.44
2022-08-16T18:18:55.365Z,61.57
2022-08-16T18:21:41.810Z,62.52
2022-08-16T18:24:10.136Z,64.05
2022-08-16T18:26:37.964Z,64.99
2022-08-16T18:29:05.686Z,65.67
2022-08-16T18:31:34.022Z,66.71
2022-08-16T18:34:01.471Z,67.49
2022-08-16T18:36:28.695Z,67.97
2022-08-16T18:38:55.819Z,68.71
2022-08-16T18:41:24.435Z,69.23
2022-08-16T18:44:22.346Z,68.96
2022-08-16T18:46:43.784Z,70.52
2022-08-16T18:49:14.899Z,71.23
2022-08-16T18:51:45.305Z,70.16
2022-08-16T18:54:18.018Z,69.14
2022-08-16T18:56:55.983Z,71.68
2022-08-16T18:59:29.765Z,70.82
2022-08-16T19:02:00.262Z,72.26
2022-08-16T19:04:55.098Z,71.54
2022-08-16T19:07:30.528Z,72.85
2022-08-16T19:10:05.825Z,72.60
2022-08-16T19:12:38.700Z,73.05
2022-08-16T19:15:14.142Z,73.23
2022-08-16T19:17:42.121Z,75.23
2022-08-16T19:20:12.194Z,74.66
2022-08-16T19:25:47.155Z,76.48
2022-08-16T19:28:51.497Z,75.91
2022-08-16T19:31:16.512Z,76.14
2022-08-16T19:33:53.836Z,75.82
2022-08-16T19:36:35.203Z,76.04
2022-08-16T19:39:11.412Z,75.69
2022-08-16T19:41:43.492Z,75.56
2022-08-16T19:44:10.572Z,75.39
2022-08-16T19:46:41.733Z,75.71
2022-08-16T19:49:09.488Z,76.54
2022-08-16T19:51:43.906Z,77.23
2022-08-16T19:54:11.234Z,76.87
2022-08-16T19:56:38.462Z,77.47
2022-08-16T19:59:40.342Z,77.57
2022-08-16T20:01:56.127Z,77.47
2022-08-16T20:04:24.888Z,77.72
2022-08-16T20:06:54.836Z,78.30
2022-08-16T20:09:23.292Z,79.25
2022-08-16T20:11:53.073Z,79.57
2022-08-16T20:14:25.633Z,79.46
2022-08-16T20:16:55.761Z,79.43
2022-08-16T20:19:22.893Z,81.04
2022-08-16T20:21:57.161Z,80.81
2022-08-16T20:24:40.172Z,80.90
2022-08-16T20:27:09.830Z,80.57
2022-08-16T20:29:38.854Z,80.41
2022-08-16T20:32:07.354Z,80.96
2022-08-16T20:34:35.014Z,80.65
2022-08-16T20:37:01.898Z,81.12
2022-08-16T20:39:28.927Z,81.14
2022-08-16T20:44:40.721Z,80.90
2022-08-16T20:47:08.320Z,82.00
2022-08-16T20:49:36.459Z,82.18
2022-08-16T20:52:12.142Z,81.82
2022-08-16T20:54:39.793Z,82.19
2022-08-16T20:57:07.217Z,81.23
2022-08-16T20:59:34.830Z,81.27
2022-08-16T21:02:01.900Z,82.04
2022-08-16T21:04:29.897Z,82.82
2022-08-16T21:06:59.335Z,82.06
2022-08-16T21:09:28.955Z,82.03
2022-08-16T21:11:57.480Z,82.03
2022-08-16T21:14:25.359Z,82.26
2022-08-16T21:16:52.359Z,82.44
2022-08-16T21:19:20.853Z,82.17
2022-08-16T21:21:47.802Z,82.05
2022-08-16T21:24:15.102Z,82.23
2022-08-16T21:26:49.799Z,82.91
2022-08-16T21:29:24.896Z,82.74
2022-08-16T21:31:52.230Z,82.56
2022-08-16T21:34:19.050Z,82.85
2022-08-16T21:36:45.986Z,83.29
2022-08-16T21:39:13.096Z,83.18
2022-08-16T21:41:40.039Z,83.40
2022-08-16T21:44:07.197Z,83.53
2022-08-16T21:46:34.102Z,84.18
2022-08-16T21:49:00.957Z,84.14
2022-08-16T21:51:27.953Z,84.17
2022-08-16T21:53:55.108Z,84.82
2022-08-16T21:56:21.965Z,83.81
2022-08-16T21:58:53.032Z,83.73
2022-08-16T22:01:23.015Z,83.45
2022-08-16T22:04:03.557Z,83.79
2022-08-16T22:06:39.198Z,84.50
2022-08-16T22:09:07.836Z,84.32
2022-08-16T22:11:34.670Z,83.96
2022-08-16T22:14:03.247Z,84.45
2022-08-16T22:16:33.382Z,84.41
2022-08-16T22:19:01.504Z,84.85
2022-08-16T22:21:29.317Z,84.95
2022-08-16T22:23:58.452Z,84.29
2022-08-16T22:26:34.391Z,84.24
2022-08-16T22:29:04.945Z,84.37
2022-08-16T22:31:33.069Z,84.17
2022-08-16T22:34:01.899Z,84.11
2022-08-16T22:36:30.484Z,84.24
2022-08-16T22:38:59.289Z,84.28
2022-08-16T22:41:32.028Z,84.28
2022-08-16T22:44:01.148Z,84.29
2022-08-16T22:46:28.932Z,84.00
2022-08-16T22:48:56.181Z,84.04
2022-08-16T22:51:25.382Z,84.06
2022-08-16T22:53:52.764Z,83.75
2022-08-16T22:56:19.963Z,83.47
2022-08-16T22:58:47.730Z,83.80
2022-08-16T23:01:16.414Z,83.90
2022-08-16T23:03:43.637Z,83.11
2022-08-16T23:06:12.417Z,83.18
2022-08-16T23:08:41.421Z,83.59
2022-08-16T23:11:21.195Z,84.11
2022-08-16T23:13:57.360Z,83.57
2022-08-16T23:16:32.782Z,83.93
2022-08-16T23:19:04.722Z,84.02
2022-08-16T23:21:32.047Z,84.00
2022-08-16T23:23:59.057Z,84.20
2022-08-16T23:29:22.119Z,83.76
2022-08-16T23:32:11.679Z,84.34
2022-08-16T23:34:38.701Z,85.15
2022-08-16T23:37:06.654Z,85.42
2022-08-16T23:39:35.946Z,85.61
2022-08-16T23:42:11.519Z,85.70
2022-08-16T23:44:56.993Z,86.33
2022-08-16T23:47:25.511Z,86.12
2022-08-16T23:50:00.281Z,86.08
2022-08-16T23:52:53.271Z,85.54
2022-08-16T23:55:17.217Z,85.15
2022-08-16T23:57:46.140Z,84.95
